Etusivu
METAR-TAF:

METAR-TAF

Lentoasemat :

Princeton, Brittiläinen Kolumbia, Kanada

Leveyspiiri: 49-28N, Pituuspiiri: 120-31W, korkeus merenpinnasta: 700 m

Tämänhetkinen sää

Tämä raportti tehtiin 2 tuntia ja 27 minuuttia sitten, kello 01.00 UTC
Tuuli 2 kn lännestä/luoteesta
Lämpötila 0°C
Kosteus 74%
Ilmanpaine 1023 hPa
Näkyvyys: 40.2 km
Muutamia pilviä 15000 ft:n korkeudessa
Hajonneita pilviä 23000 ft:n korkeudessa

METAR: CYDC 230100Z 29002KT 25SM FEW150 BKN230 M00/M04 A3020 RMK AC1CI4 LAST STFD OBS/NEXT 23 1500UTC SLP258

Aika: 19:27 (03:27 UTC)


TAF: puuttuu

Säähavainnot ja -ennusteet yli 4000 lentoasemalta (METAR- ja TAF-raportit).

Käytössä olevat sääasemat on merkitty karttaan keltaisilla ja punaisilla pisteillä.

Aseta hiiri pisteen päälle nähdäksesi sääaseman nimen.

Klikkaa sitten nähdäksesi säähavainnot ja -ennusteet.

Kartan vaihtaminen: klikkaa mustalla rastilla varustettuja vihreitä pisteitä, niin voit zoomata sisään; viivalla varustettua vihreää pistettä, niin voit zoomata ulos tai vihreitä nuolia, niin pääset viereisille kartoille.


METAR-TAF: